Time;durP1;ratioP1;P1;durP2;ratioP2;P2;SDS_P1;SDS_P2;PMS_P1;PMS_P2;Temp;Humidity;BMP_temperature;BMP_pressure;BME280_temperature;BME280_humidity;BME280_pressure;Samples;Min_cycle;Max_cycle;Signal;HPM_P1;HPM_P2
2023/01/22 00:00:17;;;;;;;20.45;10.98;;;-0.30;99.90;;;;;;5006668;28;20025;-76
2023/01/22 00:02:43;;;;;;;23.70;12.52;;;-0.40;99.90;;;;;;5008567;28;20033;-77
2023/01/22 00:05:15;;;;;;;24.52;11.77;;;-0.40;99.90;;;;;;5023989;28;20030;-76
2023/01/22 00:07:46;;;;;;;25.40;11.98;;;-0.40;99.90;;;;;;5029881;28;20033;-76
2023/01/22 00:10:15;;;;;;;21.90;10.50;;;-0.40;99.90;;;;;;5007666;28;20037;-75
2023/01/22 00:12:44;;;;;;;22.58;10.48;;;-0.40;99.90;;;;;;5013611;28;20505;-76
2023/01/22 00:15:16;;;;;;;25.60;12.30;;;-0.40;99.90;;;;;;4998979;28;20030;-75
2023/01/22 00:17:51;;;;;;;24.48;11.13;;;-0.40;99.90;;;;;;5016914;28;20108;-76
2023/01/22 00:20:16;;;;;;;24.83;11.90;;;-0.30;99.90;;;;;;5012425;28;20554;-76
2023/01/22 00:22:42;;;;;;;23.30;11.25;;;-0.40;99.90;;;;;;5005112;28;20089;-75
2023/01/22 00:25:15;;;;;;;26.27;11.68;;;-0.40;99.90;;;;;;5003618;28;20022;-76
2023/01/22 00:27:44;;;;;;;21.70;10.70;;;-0.30;99.90;;;;;;5002672;28;20130;-75
2023/01/22 00:30:13;;;;;;;27.40;12.20;;;-0.30;99.90;;;;;;4999367;28;20033;-76
2023/01/22 00:32:38;;;;;;;23.33;11.82;;;-0.30;99.90;;;;;;5019843;28;20037;-75
2023/01/22 00:35:04;;;;;;;22.70;10.68;;;-0.40;99.90;;;;;;5001180;28;20072;-76
2023/01/22 00:37:39;;;;;;;24.40;10.90;;;-0.30;99.90;;;;;;5000040;28;20026;-76
2023/01/22 00:40:06;;;;;;;23.40;11.20;;;-0.30;99.90;;;;;;5000850;28;20022;-75
2023/01/22 00:42:31;;;;;;;23.00;11.70;;;-0.30;99.90;;;;;;5017375;28;20518;-76
2023/01/22 00:44:58;;;;;;;22.77;12.23;;;-0.30;99.90;;;;;;5003546;28;20026;-76
2023/01/22 00:47:25;;;;;;;27.25;12.70;;;-0.30;99.90;;;;;;5016642;28;20053;-76
2023/01/22 00:49:53;;;;;;;21.40;11.88;;;-0.30;99.90;;;;;;5004750;28;20418;-76
2023/01/22 00:52:19;;;;;;;22.90;11.18;;;-0.30;99.90;;;;;;5022386;28;20080;-76
2023/01/22 00:54:45;;;;;;;23.05;11.15;;;-0.30;99.90;;;;;;5000227;28;20026;-76
2023/01/22 00:57:10;;;;;;;22.58;11.55;;;-0.30;99.90;;;;;;5001746;28;20022;-75
2023/01/22 00:59:39;;;;;;;26.92;12.57;;;-0.30;99.90;;;;;;5012759;28;20469;-76
2023/01/22 01:02:11;;;;;;;25.25;11.85;;;-0.30;99.90;;;;;;5001361;28;20034;-75
2023/01/22 01:04:43;;;;;;;24.13;12.23;;;-0.20;99.90;;;;;;5020721;28;20112;-76
2023/01/22 01:07:12;;;;;;;23.52;11.57;;;-0.20;99.90;;;;;;5002167;28;20029;-76
2023/01/22 01:09:37;;;;;;;20.27;10.60;;;-0.20;99.90;;;;;;5004608;28;20038;-76
2023/01/22 01:12:03;;;;;;;21.38;10.77;;;-0.20;99.90;;;;;;5004592;28;20208;-75
2023/01/22 01:14:29;;;;;;;24.10;11.50;;;-0.30;99.90;;;;;;5003977;28;20025;-76
2023/01/22 01:16:54;;;;;;;21.70;11.40;;;-0.20;99.90;;;;;;5021716;28;20018;-76
2023/01/22 01:19:20;;;;;;;23.58;11.80;;;-0.20;99.90;;;;;;5017606;28;20033;-77
2023/01/22 01:21:46;;;;;;;23.85;12.18;;;-0.20;99.90;;;;;;5001121;28;20037;-76
2023/01/22 01:24:15;;;;;;;21.85;10.77;;;-0.20;99.90;;;;;;5020207;28;20026;-75
2023/01/22 01:26:41;;;;;;;23.25;11.88;;;-0.20;99.90;;;;;;4999649;28;20049;-75
2023/01/22 01:29:08;;;;;;;24.08;11.70;;;-0.20;99.90;;;;;;5001184;28;20464;-76
2023/01/22 01:31:37;;;;;;;24.17;11.45;;;-0.20;99.90;;;;;;5017249;28;20030;-76
2023/01/22 01:34:12;;;;;;;20.17;10.70;;;-0.20;99.90;;;;;;5022009;28;20026;-76
2023/01/22 01:36:41;;;;;;;23.77;12.50;;;-0.20;99.90;;;;;;5000746;28;20053;-76
2023/01/22 01:39:16;;;;;;;23.23;12.15;;;-0.20;99.90;;;;;;4998336;28;20121;-76
2023/01/22 01:41:42;;;;;;;22.63;10.82;;;-0.20;99.90;;;;;;5020850;28;20029;-76
2023/01/22 01:44:15;;;;;;;21.90;11.90;;;-0.20;99.90;;;;;;5001113;28;20026;-76
2023/01/22 01:46:48;;;;;;;21.10;10.98;;;-0.20;99.90;;;;;;5026146;28;20030;-76
2023/01/22 01:49:22;;;;;;;23.10;11.57;;;-0.20;99.90;;;;;;5005353;28;20036;-76
2023/01/22 01:51:48;;;;;;;23.67;11.70;;;-0.20;99.90;;;;;;5000190;28;20032;-76
2023/01/22 01:54:15;;;;;;;25.67;13.25;;;-0.20;99.90;;;;;;5016459;28;20046;-76
2023/01/22 01:56:47;;;;;;;23.17;11.43;;;-0.10;99.90;;;;;;5001980;28;20026;-76
2023/01/22 01:59:18;;;;;;;23.35;10.80;;;-0.10;99.90;;;;;;5003235;28;20029;-76
2023/01/22 02:01:54;;;;;;;22.45;10.98;;;-0.10;99.90;;;;;;5003256;28;20025;-76
2023/01/22 02:04:23;;;;;;;23.45;11.75;;;-0.10;99.90;;;;;;5016332;28;20035;-75
2023/01/22 02:06:49;;;;;;;21.08;11.57;;;-0.10;99.90;;;;;;5017193;28;20030;-75
2023/01/22 02:09:15;;;;;;;20.70;10.77;;;-0.10;99.90;;;;;;5016744;28;20052;-75
2023/01/22 02:11:48;;;;;;;26.92;12.15;;;-0.10;99.90;;;;;;5009275;28;20034;-74
2023/01/22 02:14:19;;;;;;;;;;;-0.10;99.90;;;;;;5009304;28;20026;-75
2023/01/22 02:16:44;;;;;;;22.55;10.40;;;-0.10;99.90;;;;;;5018186;28;20476;-75
2023/01/22 02:19:10;;;;;;;19.95;10.77;;;-0.10;99.90;;;;;;5001450;28;20018;-75
2023/01/22 02:21:45;;;;;;;21.67;11.15;;;-0.10;99.90;;;;;;4998546;28;20038;-75
2023/01/22 02:24:15;;;;;;;24.10;12.15;;;-0.10;99.90;;;;;;5022171;28;20401;-77
2023/01/22 02:26:43;;;;;;;24.35;11.48;;;-0.10;99.90;;;;;;4997220;28;20022;-75
2023/01/22 02:29:11;;;;;;;20.27;10.02;;;-0.10;99.90;;;;;;5002447;28;20810;-76
2023/01/22 02:31:39;;;;;;;22.05;11.57;;;-0.10;99.90;;;;;;5020601;28;20037;-76
2023/01/22 02:34:08;;;;;;;21.40;10.73;;;-0.10;99.90;;;;;;5010263;28;20026;-76
2023/01/22 02:36:36;;;;;;;23.15;11.07;;;-0.10;99.90;;;;;;5013873;28;20080;-76
2023/01/22 02:39:03;;;;;;;24.88;12.80;;;-0.10;99.90;;;;;;5008953;28;20040;-75
2023/01/22 02:41:28;;;;;;;24.83;12.13;;;-0.10;99.90;;;;;;4987049;28;20510;-75
2023/01/22 02:43:55;;;;;;;23.40;11.43;;;-0.10;99.90;;;;;;5002196;28;20026;-75
2023/01/22 02:46:21;;;;;;;20.35;11.20;;;-0.10;99.90;;;;;;5002787;28;20554;-75
2023/01/22 02:48:46;;;;;;;20.00;11.60;;;-0.10;99.90;;;;;;5019294;28;20030;-75
2023/01/22 02:51:12;;;;;;;24.48;11.55;;;-0.10;99.90;;;;;;5005197;28;20033;-74
2023/01/22 02:53:41;;;;;;;22.40;11.18;;;0.00;99.90;;;;;;5006332;28;20033;-74
2023/01/22 02:56:10;;;;;;;23.33;11.55;;;-0.10;99.90;;;;;;5010970;28;20473;-74
2023/01/22 02:58:37;;;;;;;24.90;11.32;;;-0.10;99.90;;;;;;5020046;28;20022;-75
2023/01/22 03:01:19;;;;;;;22.55;12.05;;;-0.10;99.90;;;;;;4995625;28;20595;-75
2023/01/22 03:04:11;;;;;;;24.17;11.82;;;-0.10;99.90;;;;;;5012543;28;20022;-75
2023/01/22 03:06:45;;;;;;;24.13;12.10;;;-0.10;99.90;;;;;;4996986;28;20025;-75
2023/01/22 03:09:13;;;;;;;24.30;12.10;;;-0.10;99.90;;;;;;5003975;28;20588;-75
2023/01/22 03:11:40;;;;;;;21.17;11.68;;;-0.10;99.90;;;;;;4997445;28;20117;-75
2023/01/22 03:22:30;;;;;;;27.88;12.82;;;-0.30;99.90;;;;;;5019327;28;20037;-77
2023/01/22 03:24:57;;;;;;;28.63;12.38;;;-0.30;99.90;;;;;;4996391;28;20022;-76
2023/01/22 03:27:25;;;;;;;27.80;12.85;;;-0.30;99.90;;;;;;4997953;28;20030;-77
2023/01/22 03:29:51;;;;;;;27.98;13.82;;;-0.30;99.90;;;;;;5017986;28;20030;-76
2023/01/22 03:32:17;;;;;;;24.15;11.70;;;-0.30;99.90;;;;;;5012814;28;20034;-76
2023/01/22 03:34:49;;;;;;;28.33;13.13;;;-0.30;99.90;;;;;;4999969;28;20026;-77
2023/01/22 03:37:18;;;;;;;24.92;11.98;;;-0.30;99.90;;;;;;5004162;28;20018;-78
2023/01/22 03:39:47;;;;;;;24.50;12.45;;;-0.30;99.90;;;;;;5003143;28;20026;-78
2023/01/22 03:42:13;;;;;;;25.27;13.23;;;-0.30;99.90;;;;;;4998528;28;20099;-78
2023/01/22 03:44:39;;;;;;;21.63;11.65;;;-0.30;99.90;;;;;;5003390;28;20469;-78
2023/01/22 03:47:05;;;;;;;24.92;12.77;;;-0.20;99.90;;;;;;5024097;28;20056;-77
2023/01/22 03:49:30;;;;;;;24.15;11.88;;;-0.20;99.90;;;;;;5003762;28;20029;-78
2023/01/22 03:51:56;;;;;;;23.95;12.65;;;-0.20;99.90;;;;;;5019965;28;20131;-77
2023/01/22 03:54:22;;;;;;;26.92;12.57;;;-0.20;99.90;;;;;;5002326;28;20061;-78
2023/01/22 03:56:47;;;;;;;27.38;12.38;;;-0.20;99.90;;;;;;5005681;28;20061;-78
2023/01/22 03:59:13;;;;;;;28.95;14.40;;;-0.20;99.90;;;;;;5009592;28;20025;-77
2023/01/22 04:01:52;;;;;;;25.88;12.77;;;-0.20;99.90;;;;;;4996977;28;20034;-78
2023/01/22 04:04:18;;;;;;;23.33;12.38;;;-0.20;99.90;;;;;;5006653;28;20034;-78
2023/01/22 04:06:47;;;;;;;22.63;11.65;;;-0.20;99.90;;;;;;5008734;28;20025;-78
2023/01/22 04:09:14;;;;;;;23.35;11.52;;;-0.20;99.90;;;;;;5006309;28;20030;-78
2023/01/22 04:11:40;;;;;;;23.52;11.65;;;-0.20;99.90;;;;;;5008805;28;20037;-77
2023/01/22 04:14:12;;;;;;;21.90;11.45;;;-0.20;99.90;;;;;;5014786;28;20026;-77
2023/01/22 04:16:38;;;;;;;25.55;12.90;;;-0.20;99.90;;;;;;5004703;28;20108;-78
2023/01/22 04:19:04;;;;;;;26.67;12.77;;;-0.20;99.90;;;;;;5008874;28;20026;-78
2023/01/22 04:21:29;;;;;;;28.48;13.85;;;-0.20;99.90;;;;;;5008046;28;20041;-78
2023/01/22 04:23:55;;;;;;;30.58;13.73;;;-0.20;99.90;;;;;;5006407;28;20291;-77
2023/01/22 04:26:24;;;;;;;24.70;12.10;;;-0.20;99.90;;;;;;5025103;28;20065;-77
2023/01/22 04:28:50;;;;;;;26.65;13.30;;;-0.30;99.90;;;;;;5011366;28;20285;-78
2023/01/22 04:31:15;;;;;;;24.95;13.13;;;-0.30;99.90;;;;;;5003499;28;20065;-78
2023/01/22 04:33:46;;;;;;;27.75;13.30;;;-0.30;99.90;;;;;;5003434;28;20066;-77
2023/01/22 04:36:12;;;;;;;27.67;13.70;;;-0.30;99.90;;;;;;5004827;28;20052;-77
2023/01/22 04:38:41;;;;;;;30.05;13.60;;;-0.30;99.90;;;;;;5022145;28;20030;-77
2023/01/22 04:41:13;;;;;;;27.98;13.55;;;-0.30;99.90;;;;;;5022526;28;20089;-77
2023/01/22 04:43:41;;;;;;;29.35;12.75;;;-0.40;99.90;;;;;;5010178;28;20033;-78
2023/01/22 04:46:07;;;;;;;30.52;14.10;;;-0.40;99.90;;;;;;5018704;28;20084;-76
2023/01/22 04:48:36;;;;;;;31.40;15.13;;;-0.40;99.90;;;;;;5002547;28;20046;-77
2023/01/22 04:51:04;;;;;;;31.83;14.80;;;-0.40;99.90;;;;;;5011817;28;20104;-75
2023/01/22 04:53:33;;;;;;;30.65;15.68;;;-0.40;99.90;;;;;;5002362;28;20487;-75
2023/01/22 04:55:58;;;;;;;28.77;13.77;;;-0.40;99.90;;;;;;5009303;28;20026;-77
2023/01/22 04:58:24;;;;;;;32.90;14.20;;;-0.40;99.90;;;;;;5000908;28;20030;-75
2023/01/22 05:00:49;;;;;;;33.35;14.75;;;-0.40;99.90;;;;;;5016164;28;20022;-75
2023/01/22 05:03:15;;;;;;;29.88;14.45;;;-0.40;99.90;;;;;;5024393;28;20034;-77
2023/01/22 05:05:41;;;;;;;31.08;14.15;;;-0.40;99.90;;;;;;5002326;28;20025;-76
2023/01/22 05:08:09;;;;;;;27.70;13.50;;;-0.40;99.90;;;;;;5004549;28;20022;-76
2023/01/22 05:10:35;;;;;;;32.42;15.27;;;-0.40;99.90;;;;;;5018799;28;20033;-76
2023/01/22 05:13:05;;;;;;;32.72;15.73;;;-0.40;99.90;;;;;;5018590;28;20061;-76
2023/01/22 05:15:31;;;;;;;34.50;15.07;;;-0.40;99.90;;;;;;4999625;28;20025;-76
2023/01/22 05:18:06;;;;;;;30.70;13.88;;;-0.30;99.90;;;;;;4996893;28;20036;-76
2023/01/22 05:20:32;;;;;;;29.55;13.82;;;-0.30;99.90;;;;;;4998545;28;20041;-76
2023/01/22 05:22:58;;;;;;;36.13;14.77;;;-0.30;99.90;;;;;;5018137;28;20033;-76
2023/01/22 05:25:24;;;;;;;37.38;16.23;;;-0.30;99.90;;;;;;5014932;28;20411;-76
2023/01/22 05:27:49;;;;;;;31.75;16.17;;;-0.30;99.90;;;;;;5000521;28;20600;-76
2023/01/22 05:30:15;;;;;;;31.52;14.25;;;-0.30;99.90;;;;;;5002453;28;20033;-76
2023/01/22 05:32:41;;;;;;;32.45;15.15;;;-0.20;99.90;;;;;;4995786;28;20034;-76
2023/01/22 05:35:07;;;;;;;32.20;14.68;;;-0.20;99.90;;;;;;4992578;28;20033;-76
2023/01/22 05:37:35;;;;;;;33.97;15.85;;;-0.20;99.90;;;;;;4999000;28;20060;-77
2023/01/22 05:40:05;;;;;;;29.50;13.48;;;-0.30;99.90;;;;;;5000031;28;20036;-76
2023/01/22 05:42:36;;;;;;;26.75;13.00;;;-0.20;99.90;;;;;;4999285;28;20208;-76
2023/01/22 05:45:02;;;;;;;31.17;14.40;;;-0.30;99.90;;;;;;5015671;28;20101;-76
2023/01/22 05:47:28;;;;;;;27.70;13.00;;;-0.30;99.90;;;;;;5015286;28;20498;-76
2023/01/22 05:50:04;;;;;;;26.02;12.07;;;-0.30;99.90;;;;;;5002946;28;20037;-76
2023/01/22 05:52:38;;;;;;;26.58;12.88;;;-0.30;99.90;;;;;;5003657;28;20050;-76
2023/01/22 05:55:05;;;;;;;25.92;11.80;;;-0.30;99.90;;;;;;4999452;28;20136;-76
2023/01/22 05:57:34;;;;;;;29.70;13.95;;;-0.30;99.90;;;;;;5011307;28;20030;-77
2023/01/22 06:00:07;;;;;;;23.85;12.75;;;-0.30;99.90;;;;;;5003484;28;20022;-76
2023/01/22 06:02:34;;;;;;;25.52;12.75;;;-0.40;99.90;;;;;;5023615;28;20053;-76
2023/01/22 06:05:06;;;;;;;26.75;12.65;;;-0.40;99.90;;;;;;5004147;28;20423;-76
2023/01/22 06:07:32;;;;;;;24.88;12.07;;;-0.40;99.90;;;;;;5000656;28;20025;-76
2023/01/22 06:10:03;;;;;;;26.33;13.27;;;-0.30;99.90;;;;;;5003596;28;20030;-76
2023/01/22 06:12:32;;;;;;;24.73;12.10;;;-0.40;99.90;;;;;;5003830;28;20083;-77
2023/01/22 06:14:58;;;;;;;29.65;12.60;;;-0.40;99.90;;;;;;4998196;28;20383;-77
2023/01/22 06:17:23;;;;;;;27.95;13.32;;;-0.40;99.90;;;;;;5005548;28;20026;-77
2023/01/22 06:19:49;;;;;;;26.75;12.07;;;-0.40;99.90;;;;;;5002714;28;20037;-76
2023/01/22 06:22:15;;;;;;;25.95;12.18;;;-0.40;99.90;;;;;;5017645;28;20061;-76
2023/01/22 06:24:40;;;;;;;26.25;12.60;;;-0.40;99.90;;;;;;4999580;28;20033;-76
2023/01/22 06:27:06;;;;;;;27.00;12.32;;;-0.40;99.90;;;;;;4993109;28;20035;-76
2023/01/22 06:29:38;;;;;;;29.33;12.52;;;-0.40;99.90;;;;;;5016290;28;20108;-77
2023/01/22 06:32:08;;;;;;;27.52;12.63;;;-0.40;99.90;;;;;;4936141;28;20069;-78
2023/01/22 06:34:56;;;;;;;23.23;11.25;;;-0.40;99.90;;;;;;5026426;28;20041;-77
2023/01/22 06:37:28;;;;;;;23.13;11.40;;;-0.30;99.90;;;;;;5004999;28;20482;-77
2023/01/22 06:39:55;;;;;;;24.20;11.75;;;-0.40;99.90;;;;;;5006900;28;20026;-77
2023/01/22 06:42:27;;;;;;;24.45;11.63;;;-0.30;99.90;;;;;;5000617;28;20030;-76
2023/01/22 06:44:52;;;;;;;25.75;12.75;;;-0.40;99.90;;;;;;5018998;28;20136;-76
2023/01/22 06:47:18;;;;;;;25.23;12.80;;;-0.40;99.90;;;;;;5020697;28;20112;-76
2023/01/22 06:49:44;;;;;;;24.15;11.35;;;-0.40;99.90;;;;;;5018244;28;20032;-76
2023/01/22 06:52:15;;;;;;;28.80;13.35;;;-0.40;99.90;;;;;;5003053;28;20415;-76
2023/01/22 06:54:41;;;;;;;39.15;17.80;;;-0.40;99.90;;;;;;5023872;28;20116;-77
2023/01/22 06:57:09;;;;;;;35.22;15.48;;;-0.40;99.90;;;;;;5015618;28;20060;-76
2023/01/22 06:59:37;;;;;;;36.10;16.33;;;-0.40;99.90;;;;;;5018934;28;20026;-76
2023/01/22 07:02:16;;;;;;;34.38;14.68;;;-0.40;99.90;;;;;;5007788;28;20037;-76
2023/01/22 07:04:42;;;;;;;34.60;13.98;;;-0.50;99.90;;;;;;5000573;28;20026;-76
2023/01/22 07:07:12;;;;;;;29.98;13.23;;;-0.40;99.90;;;;;;5005807;28;20040;-76
2023/01/22 07:09:38;;;;;;;34.58;14.00;;;-0.50;99.90;;;;;;5001490;28;21083;-77
2023/01/22 07:12:04;;;;;;;34.03;15.20;;;-0.40;99.90;;;;;;5008258;28;20022;-77
2023/01/22 07:14:32;;;;;;;36.28;14.63;;;-0.50;99.90;;;;;;5006176;28;20026;-76
2023/01/22 07:17:04;;;;;;;41.58;16.27;;;-0.50;99.90;;;;;;5023549;28;20026;-76
2023/01/22 07:19:30;;;;;;;40.10;15.98;;;-0.50;99.90;;;;;;5005911;28;20027;-77
2023/01/22 07:21:59;;;;;;;42.88;15.85;;;-0.50;99.90;;;;;;5016639;28;20486;-71
2023/01/22 07:24:24;;;;;;;41.40;15.38;;;-0.50;99.90;;;;;;4993674;28;20097;-72
2023/01/22 07:26:53;;;;;;;41.95;16.88;;;-0.50;99.90;;;;;;4998409;28;20439;-72
2023/01/22 07:29:22;;;;;;;41.28;16.08;;;-0.50;99.90;;;;;;4991252;28;20416;-72
2023/01/22 07:31:47;;;;;;;46.30;17.42;;;-0.40;99.90;;;;;;5010940;28;20036;-71
2023/01/22 07:34:13;;;;;;;48.58;16.95;;;-0.40;99.90;;;;;;5013778;28;20042;-72
2023/01/22 07:36:54;;;;;;;52.17;17.42;;;-0.40;99.90;;;;;;5011739;28;20033;-72
2023/01/22 07:39:22;;;;;;;43.15;16.80;;;-0.40;99.90;;;;;;4994061;28;20030;-77
2023/01/22 07:41:59;;;;;;;52.65;18.02;;;-0.40;99.90;;;;;;5012151;28;20030;-77
2023/01/22 07:44:31;;;;;;;49.90;18.27;;;-0.30;99.90;;;;;;5007172;28;20026;-77
2023/01/22 07:47:00;;;;;;;50.75;18.38;;;-0.40;99.90;;;;;;5010523;28;20044;-77
2023/01/22 07:49:28;;;;;;;48.83;17.35;;;-0.30;99.90;;;;;;5019251;28;20030;-77
2023/01/22 07:51:55;;;;;;;53.25;17.27;;;-0.30;99.90;;;;;;5014396;28;20022;-74
2023/01/22 07:54:24;;;;;;;48.50;16.13;;;-0.30;99.90;;;;;;5011642;28;20025;-75
2023/01/22 07:56:52;;;;;;;46.28;16.88;;;-0.30;99.90;;;;;;5020579;28;20029;-76
2023/01/22 07:59:18;;;;;;;48.22;16.63;;;-0.30;99.90;;;;;;5000397;28;20105;-76
2023/01/22 08:01:54;;;;;;;43.75;16.00;;;-0.30;99.90;;;;;;5021391;28;20057;-75
2023/01/22 08:04:20;;;;;;;59.92;17.55;;;-0.30;99.90;;;;;;5000131;28;20025;-75
2023/01/22 08:06:48;;;;;;;40.65;16.92;;;-0.30;99.90;;;;;;5014719;28;20032;-75
2023/01/22 08:09:24;;;;;;;46.60;19.00;;;-0.30;99.90;;;;;;5002971;28;20030;-75
2023/01/22 08:11:54;;;;;;;62.78;17.70;;;-0.30;99.90;;;;;;5004170;28;20539;-75
2023/01/22 08:14:21;;;;;;;56.80;17.40;;;-0.20;99.90;;;;;;5007295;28;20053;-75
2023/01/22 08:16:53;;;;;;;44.10;15.73;;;-0.20;99.90;;;;;;5013864;28;20034;-76
2023/01/22 08:19:20;;;;;;;48.17;16.35;;;-0.30;99.90;;;;;;5012577;28;20685;-76
2023/01/22 08:21:53;;;;;;;36.75;15.10;;;-0.30;99.90;;;;;;5000896;28;20081;-75
2023/01/22 08:24:19;;;;;;;54.00;18.97;;;-0.30;99.90;;;;;;5013564;28;20029;-77
2023/01/22 08:26:49;;;;;;;53.92;20.40;;;-0.30;99.90;;;;;;5025858;28;20022;-76
2023/01/22 08:29:22;;;;;;;51.28;19.48;;;-0.30;99.90;;;;;;5023841;28;20044;-76
2023/01/22 08:31:49;;;;;;;28.58;11.60;;;-0.20;99.90;;;;;;5010447;28;20057;-76
2023/01/22 08:34:15;;;;;;;36.20;14.55;;;-0.20;99.90;;;;;;4997234;28;20053;-77
2023/01/22 08:36:41;;;;;;;39.65;14.55;;;-0.20;99.90;;;;;;4999602;28;20026;-76
2023/01/22 08:39:10;;;;;;;39.38;14.15;;;-0.20;99.90;;;;;;5018065;28;20034;-75
2023/01/22 08:41:36;;;;;;;42.08;16.58;;;-0.20;99.90;;;;;;4991056;28;20455;-77
2023/01/22 08:44:02;;;;;;;38.80;15.82;;;-0.20;99.90;;;;;;5003015;28;20090;-77
2023/01/22 08:46:38;;;;;;;32.80;13.50;;;-0.20;99.90;;;;;;5003853;28;20084;-75
2023/01/22 08:49:05;;;;;;;38.63;15.98;;;-0.20;99.90;;;;;;5005585;28;20498;-77
2023/01/22 08:51:37;;;;;;;39.88;15.30;;;-0.20;99.90;;;;;;5020667;28;20037;-77
2023/01/22 08:54:06;;;;;;;37.00;15.15;;;-0.10;99.90;;;;;;5010400;28;20433;-78
2023/01/22 08:56:32;;;;;;;33.65;13.27;;;0.00;99.90;;;;;;5007798;28;20581;-78
2023/01/22 08:58:59;;;;;;;47.60;18.95;;;0.00;99.90;;;;;;5011529;28;20038;-77
2023/01/22 09:01:28;;;;;;;47.25;18.08;;;0.10;99.90;;;;;;5009218;28;20018;-77
2023/01/22 09:03:54;;;;;;;72.30;25.20;;;0.20;99.90;;;;;;5003105;28;20027;-77
2023/01/22 09:06:23;;;;;;;56.70;22.58;;;0.10;99.90;;;;;;5004358;28;20379;-77
2023/01/22 09:08:53;;;;;;;44.88;16.80;;;0.20;99.90;;;;;;4998098;28;20533;-77
2023/01/22 09:11:19;;;;;;;59.65;22.73;;;0.10;99.90;;;;;;5003967;28;20462;-77
2023/01/22 09:13:44;;;;;;;40.47;16.60;;;0.10;99.90;;;;;;4995989;28;20248;-77
2023/01/22 09:16:13;;;;;;;34.60;14.30;;;0.20;99.90;;;;;;4994437;28;20026;-76
2023/01/22 09:18:39;;;;;;;36.85;14.80;;;0.20;99.90;;;;;;4994813;28;20037;-77
2023/01/22 09:21:05;;;;;;;33.25;15.30;;;0.20;99.90;;;;;;5000254;28;20026;-78
2023/01/22 09:23:31;;;;;;;29.55;13.25;;;0.20;99.90;;;;;;5000118;28;20060;-77
2023/01/22 09:25:57;;;;;;;51.95;21.10;;;0.20;99.90;;;;;;5002147;28;20132;-77
2023/01/22 09:28:23;;;;;;;40.30;17.70;;;0.20;99.90;;;;;;5002766;28;20271;-78
2023/01/22 09:30:48;;;;;;;51.53;21.00;;;0.10;99.90;;;;;;5003639;28;20034;-77
2023/01/22 09:33:14;;;;;;;49.55;21.20;;;0.10;99.90;;;;;;5003911;28;20036;-77
2023/01/22 09:35:40;;;;;;;47.53;18.50;;;0.20;99.90;;;;;;5006014;28;20081;-77
2023/01/22 09:38:12;;;;;;;48.15;19.23;;;0.20;99.90;;;;;;5011661;28;20027;-73
2023/01/22 09:40:57;;;;;;;55.90;23.55;;;0.20;99.90;;;;;;4995690;28;20488;-73
2023/01/22 09:43:46;;;;;;;48.00;20.08;;;0.20;99.90;;;;;;5015741;28;20032;-73
2023/01/22 09:46:20;;;;;;;52.72;19.35;;;0.30;99.90;;;;;;4997736;28;20167;-73
2023/01/22 09:48:52;;;;;;;55.30;19.58;;;0.20;99.90;;;;;;5008506;28;20022;-73
2023/01/22 09:51:18;;;;;;;50.53;20.30;;;0.30;99.90;;;;;;5011806;28;20068;-73
2023/01/22 09:53:49;;;;;;;52.70;22.55;;;0.30;99.90;;;;;;5011121;28;20040;-73
2023/01/22 09:56:20;;;;;;;52.03;20.63;;;0.30;99.90;;;;;;5015449;28;20014;-72
2023/01/22 09:58:54;;;;;;;73.22;23.45;;;0.40;99.90;;;;;;5014564;28;20028;-75
2023/01/22 10:01:23;;;;;;;;;;;0.40;99.90;;;;;;4993796;28;20022;-73
2023/01/22 10:03:53;;;;;;;50.65;20.48;;;0.50;99.90;;;;;;4998538;28;19909;-72
2023/01/22 10:06:21;;;;;;;41.85;17.65;;;0.50;99.90;;;;;;5014145;28;20026;-73
2023/01/22 10:09:06;;;;;;;34.03;14.75;;;0.60;99.90;;;;;;4995085;28;20368;-72
2023/01/22 10:11:38;;;;;;;49.65;18.92;;;0.60;99.90;;;;;;5008891;28;20056;-74
2023/01/22 10:14:14;;;;;;;23.50;11.52;;;0.60;99.90;;;;;;5001413;28;20032;-74
2023/01/22 10:16:40;;;;;;;19.02;8.48;;;0.50;99.90;;;;;;5003263;28;20014;-74
2023/01/22 10:19:26;;;;;;;21.48;9.27;;;0.50;99.90;;;;;;4998158;28;20056;-74
2023/01/22 10:22:09;;;;;;;22.60;10.75;;;0.50;99.90;;;;;;5010643;28;20408;-74
2023/01/22 10:24:37;;;;;;;26.25;11.55;;;0.50;99.90;;;;;;4994549;28;20495;-74
2023/01/22 10:27:15;;;;;;;28.25;12.52;;;0.50;99.90;;;;;;4994207;28;20030;-74
2023/01/22 10:29:57;;;;;;;28.67;12.48;;;0.50;99.90;;;;;;5015761;28;20022;-73
2023/01/22 10:32:25;;;;;;;25.02;11.57;;;0.40;99.90;;;;;;5001000;28;20112;-74
2023/01/22 10:35:05;;;;;;;23.85;11.93;;;0.40;99.90;;;;;;5000553;28;20100;-74
2023/01/22 10:37:45;;;;;;;25.25;12.23;;;0.40;99.90;;;;;;5014464;28;20026;-74
2023/01/22 10:40:23;;;;;;;28.27;12.45;;;0.40;99.90;;;;;;5009646;28;20034;-75
2023/01/22 10:43:05;;;;;;;29.40;13.10;;;0.40;99.90;;;;;;4993993;28;20085;-73
2023/01/22 10:45:32;;;;;;;26.67;12.50;;;0.50;99.90;;;;;;4995401;28;20191;-73
2023/01/22 10:48:14;;;;;;;22.90;10.68;;;0.40;99.90;;;;;;5012026;28;20287;-73
2023/01/22 10:50:42;;;;;;;24.83;10.95;;;0.40;99.90;;;;;;4998436;28;20033;-73
2023/01/22 10:53:28;;;;;;;22.92;10.80;;;0.50;99.90;;;;;;4998099;28;20029;-73
2023/01/22 10:55:58;;;;;;;23.73;9.90;;;0.50;99.90;;;;;;4996976;28;20030;-73
2023/01/22 10:58:26;;;;;;;22.23;10.05;;;0.60;99.90;;;;;;5013234;28;20041;-73
2023/01/22 11:01:36;;;;;;;22.73;9.45;;;0.60;99.90;;;;;;4996421;28;20033;-74
2023/01/22 11:04:12;;;;;;;22.17;9.85;;;0.50;99.90;;;;;;5014445;28;20057;-74
2023/01/22 11:06:46;;;;;;;30.63;12.65;;;0.60;99.90;;;;;;5018819;28;20029;-73
2023/01/22 11:09:38;;;;;;;;;;;0.70;99.90;;;;;;5007117;28;20373;-73
2023/01/22 11:12:23;;;;;;;20.85;10.15;;;0.70;99.90;;;;;;4978407;28;19965;-71
2023/01/22 11:15:12;;;;;;;23.88;10.15;;;0.70;99.90;;;;;;5017949;28;20024;-74
2023/01/22 11:17:43;;;;;;;20.88;9.77;;;0.70;99.90;;;;;;4961596;28;20038;-74
2023/01/22 11:20:47;;;;;;;26.95;10.80;;;0.70;99.90;;;;;;5012008;28;20391;-73
2023/01/22 11:23:25;;;;;;;21.38;10.20;;;0.70;99.90;;;;;;4993784;28;20104;-73
2023/01/22 11:26:04;;;;;;;22.00;10.35;;;0.80;99.90;;;;;;5017856;28;20092;-73
2023/01/22 11:28:49;;;;;;;25.10;10.60;;;0.80;99.90;;;;;;5013749;28;20036;-74
2023/01/22 11:31:33;;;;;;;21.27;10.20;;;0.90;99.90;;;;;;4995550;28;20022;-73
2023/01/22 11:34:37;;;;;;;19.85;9.13;;;0.90;99.90;;;;;;4993297;28;20022;-73
2023/01/22 11:37:39;;;;;;;20.13;9.90;;;0.90;99.90;;;;;;5016843;28;20523;-73
2023/01/22 11:40:28;;;;;;;20.10;9.23;;;0.80;99.90;;;;;;4934085;28;1119365;-73
2023/01/22 11:43:10;;;;;;;18.10;8.95;;;0.90;99.90;;;;;;5018520;28;20064;-74
2023/01/22 11:45:58;;;;;;;26.88;11.32;;;1.00;99.90;;;;;;5015043;28;20109;-73
2023/01/22 11:48:56;;;;;;;29.30;12.63;;;1.00;99.90;;;;;;5006698;28;20037;-73
2023/01/22 11:51:24;;;;;;;26.08;10.35;;;1.10;99.90;;;;;;5008729;28;20480;-73
2023/01/22 11:54:04;;;;;;;22.50;10.80;;;1.10;99.90;;;;;;5009429;28;20033;-74
2023/01/22 11:56:41;;;;;;;22.67;10.55;;;1.20;99.90;;;;;;5006430;28;20033;-73
2023/01/22 11:59:57;;;;;;;20.20;9.68;;;1.20;99.90;;;;;;5012106;28;20033;-73
2023/01/22 12:02:45;;;;;;;18.42;8.52;;;1.10;99.90;;;;;;4947508;28;20081;-73
2023/01/22 12:05:19;;;;;;;17.88;8.88;;;1.10;99.90;;;;;;5011245;28;20068;-73
2023/01/22 12:08:42;;;;;;;20.23;8.40;;;1.00;99.90;;;;;;5013792;28;20034;-73
2023/01/22 12:11:40;;;;;;;22.00;8.73;;;0.90;99.90;;;;;;4935782;29;20054;-74
2023/01/22 12:14:30;;;;;;;16.73;7.97;;;0.90;99.90;;;;;;4927885;29;20416;-74
2023/01/22 12:17:31;;;;;;;21.35;9.52;;;0.90;99.90;;;;;;5005522;28;20026;-73
2023/01/22 12:20:07;;;;;;;19.98;9.90;;;1.00;99.90;;;;;;5014763;28;20033;-73
2023/01/22 12:23:13;;;;;;;24.55;11.43;;;1.00;99.90;;;;;;5006050;28;20022;-73
2023/01/22 12:26:02;;;;;;;34.17;13.45;;;1.00;99.90;;;;;;5007169;28;20387;-73
2023/01/22 12:28:48;;;;;;;23.65;10.43;;;1.00;99.90;;;;;;5007437;28;20355;-73
2023/01/22 12:31:26;;;;;;;17.52;8.80;;;1.00;99.90;;;;;;5001763;28;20653;-73
2023/01/22 12:34:00;;;;;;;26.42;12.35;;;1.00;99.90;;;;;;5014882;28;20084;-73
2023/01/22 12:36:26;;;;;;;18.92;9.25;;;1.00;99.90;;;;;;5006959;28;20109;-72
2023/01/22 12:39:02;;;;;;;22.02;10.48;;;0.90;99.90;;;;;;5006385;28;20044;-73
2023/01/22 12:41:47;;;;;;;22.05;11.38;;;0.90;99.90;;;;;;5009018;28;20030;-73
2023/01/22 12:44:47;;;;;;;20.05;9.73;;;0.90;99.90;;;;;;4994587;28;20530;-74
2023/01/22 12:47:44;;;;;;;20.90;9.95;;;0.90;99.90;;;;;;4984797;28;20029;-73
2023/01/22 12:50:18;;;;;;;25.27;10.05;;;0.90;99.90;;;;;;5015012;28;20030;-72
2023/01/22 12:52:45;;;;;;;21.13;9.35;;;0.80;99.90;;;;;;4992608;28;20410;-72
2023/01/22 12:55:30;;;;;;;24.52;10.73;;;0.80;99.90;;;;;;5004146;28;20089;-73
2023/01/22 12:57:57;;;;;;;18.50;9.40;;;0.70;99.90;;;;;;5004677;28;20084;-73
2023/01/22 13:00:35;;;;;;;20.50;10.60;;;0.70;99.90;;;;;;5003819;28;20040;-73